createdAt,value
2023-09-29T00:02:13.669Z,101080.36
2023-09-29T00:04:45.713Z,101084.23
2023-09-29T00:07:18.254Z,101079.95
2023-09-29T00:09:47.858Z,101079.19
2023-09-29T00:12:16.734Z,101076.64
2023-09-29T00:14:45.765Z,101077.21
2023-09-29T00:17:15.493Z,101078.52
2023-09-29T00:19:47.034Z,101074.41
2023-09-29T00:22:18.137Z,101074.28
2023-09-29T00:24:51.902Z,101072.55
2023-09-29T00:27:20.529Z,101073.73
2023-09-29T00:29:49.801Z,101075.55
2023-09-29T00:32:19.559Z,101073.30
2023-09-29T00:35:00.163Z,101069.93
2023-09-29T00:37:32.137Z,101072.26
2023-09-29T00:40:17.342Z,101069.83
2023-09-29T00:42:46.547Z,101067.04
2023-09-29T00:45:43.049Z,101071.77
2023-09-29T00:48:12.150Z,101070.01
2023-09-29T00:50:43.789Z,101072.42
2023-09-29T00:53:15.933Z,101067.34
2023-09-29T00:55:49.667Z,101068.88
2023-09-29T00:58:20.711Z,101063.52
2023-09-29T01:00:53.855Z,101061.48
2023-09-29T01:03:23.421Z,101058.04
2023-09-29T01:05:57.198Z,101058.41
2023-09-29T01:08:27.998Z,101057.73
2023-09-29T01:11:07.120Z,101058.21
2023-09-29T01:13:42.939Z,101053.55
2023-09-29T01:16:12.195Z,101051.33
2023-09-29T01:18:41.738Z,101050.95
2023-09-29T01:21:15.160Z,101050.94
2023-09-29T01:23:49.781Z,101049.78
2023-09-29T01:26:20.023Z,101055.02
2023-09-29T01:28:51.766Z,101051.30
2023-09-29T01:31:23.007Z,101051.34
2023-09-29T01:34:01.015Z,101049.13
2023-09-29T01:36:30.852Z,101052.38
2023-09-29T01:39:18.588Z,101051.67
2023-09-29T01:41:54.432Z,101051.78
2023-09-29T01:44:35.598Z,101048.65
2023-09-29T01:47:06.624Z,101053.54
2023-09-29T01:49:44.996Z,101050.96
2023-09-29T01:52:16.552Z,101051.17
2023-09-29T01:54:47.292Z,101056.09
2023-09-29T01:57:20.019Z,101052.19
2023-09-29T01:59:50.692Z,101057.51
2023-09-29T02:02:22.057Z,101056.04
2023-09-29T02:04:54.327Z,101057.71
2023-09-29T02:07:26.301Z,101057.80
2023-09-29T02:10:05.101Z,101057.48
2023-09-29T02:12:40.572Z,101056.30
2023-09-29T02:15:11.487Z,101051.54
2023-09-29T02:17:43.570Z,101053.26
2023-09-29T02:20:33.984Z,101052.73
2023-09-29T02:23:09.748Z,101054.84
2023-09-29T02:25:42.620Z,101051.05
2023-09-29T02:28:34.083Z,101051.98
2023-09-29T02:31:07.219Z,101049.00
2023-09-29T02:33:45.786Z,101053.73
2023-09-29T02:36:18.978Z,101055.90
2023-09-29T02:38:49.968Z,101051.48
2023-09-29T02:41:22.483Z,101057.80
2023-09-29T02:43:53.931Z,101059.48
2023-09-29T02:46:27.032Z,101060.52
2023-09-29T02:48:56.635Z,101060.25
2023-09-29T02:54:44.702Z,101065.23
2023-09-29T02:57:15.926Z,101057.66
2023-09-29T02:59:47.879Z,101056.48
2023-09-29T03:02:15.105Z,101051.52
2023-09-29T03:04:45.114Z,101050.54
2023-09-29T03:07:16.342Z,101048.37
2023-09-29T03:09:43.525Z,101044.78
2023-09-29T03:12:17.974Z,101042.42
2023-09-29T03:14:47.230Z,101041.23
2023-09-29T03:17:38.436Z,101042.11
2023-09-29T03:20:12.657Z,101043.94
2023-09-29T03:23:00.697Z,101045.83
2023-09-29T03:25:29.773Z,101050.91
2023-09-29T03:28:03.116Z,101051.23
2023-09-29T03:30:45.215Z,101049.37
2023-09-29T03:33:12.471Z,101047.27
2023-09-29T03:39:12.525Z,101047.11
2023-09-29T03:42:05.186Z,101051.50
2023-09-29T03:44:35.044Z,101053.00
2023-09-29T03:47:28.040Z,101049.57
2023-09-29T03:49:58.180Z,101050.46
2023-09-29T03:52:27.883Z,101048.48
2023-09-29T03:55:16.427Z,101048.20
2023-09-29T03:57:50.676Z,101051.84
2023-09-29T04:00:21.091Z,101052.63
2023-09-29T04:02:53.354Z,101054.63
2023-09-29T04:05:21.927Z,101054.40
2023-09-29T04:07:53.657Z,101059.84
2023-09-29T04:10:45.479Z,101066.06
2023-09-29T04:13:15.958Z,101068.71
2023-09-29T04:15:53.960Z,101069.80
2023-09-29T04:18:56.483Z,101074.00
2023-09-29T04:21:24.939Z,101072.89
2023-09-29T04:23:52.835Z,101075.88
2023-09-29T04:26:25.959Z,101076.54
2023-09-29T04:29:22.760Z,101078.21
2023-09-29T04:31:51.951Z,101077.57
2023-09-29T04:39:22.672Z,101077.39
2023-09-29T04:41:50.488Z,101079.57
2023-09-29T04:44:17.747Z,101082.96
2023-09-29T04:47:06.139Z,101089.40
2023-09-29T04:49:34.966Z,101092.82
2023-09-29T04:52:02.861Z,101094.46
2023-09-29T04:54:30.128Z,101098.77
2023-09-29T04:57:01.880Z,101098.08
2023-09-29T04:59:31.603Z,101100.77
2023-09-29T05:02:02.479Z,101101.71
2023-09-29T05:04:33.760Z,101103.35
2023-09-29T05:07:10.705Z,101100.41
2023-09-29T05:09:40.255Z,101103.61
2023-09-29T05:12:12.522Z,101101.39
2023-09-29T05:14:40.252Z,101105.42
2023-09-29T05:17:07.912Z,101107.71
2023-09-29T05:19:39.945Z,101108.77
2023-09-29T05:22:12.425Z,101110.19
2023-09-29T05:24:40.859Z,101108.33
2023-09-29T05:27:14.995Z,101107.31
2023-09-29T05:29:42.974Z,101109.80
2023-09-29T05:32:12.512Z,101113.27
2023-09-29T05:34:41.822Z,101113.20
2023-09-29T05:37:12.221Z,101115.73
2023-09-29T05:39:42.417Z,101119.42
2023-09-29T05:42:14.922Z,101120.79
2023-09-29T05:44:46.608Z,101117.58
2023-09-29T05:47:14.069Z,101115.25
2023-09-29T05:53:10.362Z,101121.98
2023-09-29T05:55:50.353Z,101122.82
2023-09-29T05:58:19.368Z,101127.23
2023-09-29T06:00:46.931Z,101128.08
2023-09-29T06:03:40.046Z,101129.15
2023-09-29T06:06:11.300Z,101129.67
2023-09-29T06:08:55.347Z,101135.83
2023-09-29T06:11:57.988Z,101133.38
2023-09-29T06:14:30.195Z,101135.09
2023-09-29T06:17:00.360Z,101136.38
2023-09-29T06:19:34.823Z,101134.91
2023-09-29T06:22:02.537Z,101139.11
2023-09-29T06:24:32.550Z,101143.04
2023-09-29T06:27:00.624Z,101143.70
2023-09-29T06:29:30.051Z,101142.29
2023-09-29T06:31:59.871Z,101149.58
2023-09-29T06:34:31.212Z,101148.19
2023-09-29T06:37:00.187Z,101145.07
2023-09-29T06:39:27.956Z,101149.94
2023-09-29T06:41:55.212Z,101149.15
2023-09-29T06:44:23.105Z,101149.89
2023-09-29T06:46:50.363Z,101150.65
2023-09-29T06:49:18.006Z,101156.38
2023-09-29T06:51:45.714Z,101161.75
2023-09-29T06:54:13.136Z,101162.48
2023-09-29T06:56:40.670Z,101162.03
2023-09-29T06:59:10.040Z,101162.63
2023-09-29T07:01:37.960Z,101162.70
2023-09-29T07:04:08.667Z,101162.80
2023-09-29T07:06:38.148Z,101161.77
2023-09-29T07:09:05.618Z,101163.75
2023-09-29T07:11:32.954Z,101163.95
2023-09-29T07:14:00.182Z,101163.62
2023-09-29T07:16:27.424Z,101168.92
2023-09-29T07:18:55.143Z,101172.27
2023-09-29T07:21:22.628Z,101168.39
2023-09-29T07:23:50.976Z,101168.73
2023-09-29T07:26:18.187Z,101163.16
2023-09-29T07:28:45.446Z,101164.39
2023-09-29T07:31:12.889Z,101165.42
2023-09-29T07:33:40.283Z,101160.92
2023-09-29T07:36:07.648Z,101161.88
2023-09-29T07:38:34.957Z,101161.42
2023-09-29T07:41:06.397Z,101162.25
2023-09-29T07:43:33.714Z,101161.91
2023-09-29T07:46:00.987Z,101162.37
2023-09-29T07:48:29.601Z,101161.70
2023-09-29T07:50:56.995Z,101161.03
2023-09-29T07:53:24.228Z,101157.27
2023-09-29T07:55:53.744Z,101155.56
2023-09-29T07:58:20.944Z,101155.88
2023-09-29T08:00:48.170Z,101155.94
2023-09-29T08:03:15.643Z,101155.83
2023-09-29T08:05:42.946Z,101154.82
2023-09-29T08:08:10.167Z,101159.08
2023-09-29T08:10:37.435Z,101156.23
2023-09-29T08:13:04.994Z,101156.48
2023-09-29T08:15:32.210Z,101153.58
2023-09-29T08:17:59.690Z,101156.36
2023-09-29T08:20:27.007Z,101158.84
2023-09-29T08:22:54.168Z,101161.04
2023-09-29T08:25:21.648Z,101158.38
2023-09-29T08:27:49.039Z,101157.89
2023-09-29T08:30:16.548Z,101158.21
2023-09-29T08:32:45.402Z,101157.58
2023-09-29T08:35:16.807Z,101156.93
2023-09-29T08:37:44.567Z,101153.80
2023-09-29T08:40:13.861Z,101152.68
2023-09-29T08:42:42.966Z,101155.82
2023-09-29T08:45:11.578Z,101155.06
2023-09-29T08:47:39.786Z,101156.01
2023-09-29T08:50:08.486Z,101157.09
2023-09-29T08:52:35.818Z,101158.48
2023-09-29T08:55:06.200Z,101155.30
2023-09-29T08:57:33.468Z,101151.30
2023-09-29T09:00:01.988Z,101156.68
2023-09-29T09:02:29.535Z,101152.73
2023-09-29T09:04:58.530Z,101152.95
2023-09-29T09:07:25.932Z,101151.56
2023-09-29T09:09:56.799Z,101149.77
2023-09-29T09:12:36.978Z,101149.23
2023-09-29T09:15:05.998Z,101150.02
2023-09-29T09:17:35.857Z,101146.15
2023-09-29T09:20:03.248Z,101146.09
2023-09-29T09:22:45.901Z,101146.97
2023-09-29T09:25:16.706Z,101145.20
2023-09-29T09:27:45.411Z,101143.98
2023-09-29T09:30:24.865Z,101145.20
2023-09-29T09:32:52.929Z,101143.13
2023-09-29T09:35:27.571Z,101143.08
2023-09-29T09:37:55.772Z,101137.05
2023-09-29T09:40:25.955Z,101140.09
2023-09-29T09:42:56.984Z,101134.90
2023-09-29T09:45:26.643Z,101138.89
2023-09-29T09:48:03.260Z,101137.52
2023-09-29T09:50:32.258Z,101135.79
2023-09-29T09:52:59.723Z,101134.77
2023-09-29T09:55:43.709Z,101135.86
2023-09-29T09:58:14.452Z,101135.00
2023-09-29T10:00:43.320Z,101132.23
2023-09-29T10:03:13.608Z,101135.12
2023-09-29T10:05:43.115Z,101131.02
2023-09-29T10:08:12.325Z,101129.98
2023-09-29T10:10:40.630Z,101131.67
2023-09-29T10:13:16.852Z,101128.92
2023-09-29T10:15:44.998Z,101127.14
2023-09-29T10:18:19.768Z,101125.20
2023-09-29T10:21:02.989Z,101120.58
2023-09-29T10:23:30.420Z,101119.16
2023-09-29T10:26:01.909Z,101114.73
2023-09-29T10:28:32.979Z,101112.48
2023-09-29T10:31:15.394Z,101112.68
2023-09-29T10:33:55.500Z,101110.12
2023-09-29T10:36:25.067Z,101104.96
2023-09-29T10:38:53.390Z,101101.60
2023-09-29T10:41:34.105Z,101100.24
2023-09-29T10:44:02.610Z,101099.88
2023-09-29T10:46:30.639Z,101099.66
2023-09-29T10:48:57.935Z,101088.40
2023-09-29T10:51:29.942Z,101089.21
2023-09-29T10:54:01.303Z,101087.18
2023-09-29T10:56:28.898Z,101079.82
2023-09-29T10:58:56.478Z,101074.41
2023-09-29T11:01:33.099Z,101073.12
2023-09-29T11:04:02.538Z,101068.17
2023-09-29T11:06:29.967Z,101068.25
2023-09-29T11:09:00.070Z,101064.98
2023-09-29T11:11:28.269Z,101060.53
2023-09-29T11:13:59.366Z,101060.05
2023-09-29T11:16:28.874Z,101056.02
2023-09-29T11:18:58.993Z,101056.56
2023-09-29T11:21:36.179Z,101052.21
2023-09-29T11:24:10.480Z,101049.12
2023-09-29T11:26:44.916Z,101047.47
2023-09-29T11:29:25.996Z,101045.66
2023-09-29T11:31:55.113Z,101043.39
2023-09-29T11:34:23.038Z,101038.66
2023-09-29T11:36:50.668Z,101037.36
2023-09-29T11:39:21.094Z,101033.24
2023-09-29T11:41:48.512Z,101032.23
2023-09-29T11:44:18.889Z,101028.80
2023-09-29T11:46:46.433Z,101024.74
2023-09-29T11:49:15.450Z,101022.42
2023-09-29T11:51:42.684Z,101021.02
2023-09-29T11:54:09.970Z,101017.11
2023-09-29T11:56:37.186Z,101013.69
2023-09-29T11:59:04.659Z,101010.21
2023-09-29T12:01:32.203Z,101009.15
2023-09-29T12:03:59.893Z,101009.34
2023-09-29T12:06:28.717Z,101004.19
2023-09-29T12:08:57.044Z,101002.61
2023-09-29T12:11:24.300Z,100999.70
2023-09-29T12:13:51.525Z,100996.33
2023-09-29T12:16:19.006Z,100993.99
2023-09-29T12:18:46.769Z,100991.84
2023-09-29T12:21:14.231Z,100990.41
2023-09-29T12:23:42.075Z,100989.48
2023-09-29T12:26:10.415Z,100988.19
2023-09-29T12:28:38.166Z,100980.52
2023-09-29T12:31:20.228Z,100981.56
2023-09-29T12:33:47.572Z,100981.76
2023-09-29T12:36:16.171Z,100977.16
2023-09-29T12:38:45.983Z,100977.05
2023-09-29T12:41:14.905Z,100973.20
2023-09-29T12:43:42.973Z,100969.52
2023-09-29T12:46:10.146Z,100971.98
2023-09-29T12:48:37.470Z,100969.40
2023-09-29T12:51:04.704Z,100970.01
2023-09-29T12:53:32.258Z,100961.14
2023-09-29T12:55:59.657Z,100960.25
2023-09-29T12:58:26.894Z,100958.53
2023-09-29T13:00:55.874Z,100958.98
2023-09-29T13:03:23.132Z,100961.25
2023-09-29T13:05:50.507Z,100961.44
2023-09-29T13:08:17.730Z,100958.64
2023-09-29T13:10:47.894Z,100955.64
2023-09-29T13:13:15.109Z,100958.23
2023-09-29T13:15:43.070Z,100952.48
2023-09-29T13:18:10.389Z,100952.73
2023-09-29T13:20:40.029Z,100952.19
2023-09-29T13:23:08.411Z,100951.70
2023-09-29T13:25:35.575Z,100946.75
2023-09-29T13:28:03.905Z,100939.47
2023-09-29T13:30:43.466Z,100941.52
2023-09-29T13:33:20.138Z,100936.82
2023-09-29T13:35:47.468Z,100939.17
2023-09-29T13:38:14.952Z,100937.39
2023-09-29T13:40:42.662Z,100939.74
2023-09-29T13:43:10.904Z,100939.91
2023-09-29T13:45:38.213Z,100936.95
2023-09-29T13:48:05.812Z,100933.52
2023-09-29T13:50:33.166Z,100936.07
2023-09-29T13:53:00.325Z,100936.71
2023-09-29T13:55:27.441Z,100936.02
2023-09-29T13:57:54.609Z,100935.27
2023-09-29T14:00:23.547Z,100930.51
2023-09-29T14:02:51.558Z,100928.76
2023-09-29T14:05:19.000Z,100926.26
2023-09-29T14:07:46.144Z,100924.05
2023-09-29T14:10:13.347Z,100920.62
2023-09-29T14:12:40.796Z,100918.89
2023-09-29T14:15:10.283Z,100914.63
2023-09-29T14:17:37.562Z,100913.04
2023-09-29T14:20:07.420Z,100909.90
2023-09-29T14:22:34.510Z,100906.71
2023-09-29T14:25:02.585Z,100904.56
2023-09-29T14:27:29.766Z,100907.54
2023-09-29T14:29:57.086Z,100902.84
2023-09-29T14:32:27.295Z,100901.40
2023-09-29T14:34:55.452Z,100899.98
2023-09-29T14:37:22.685Z,100898.88
2023-09-29T14:39:49.872Z,100895.43
2023-09-29T14:42:17.076Z,100890.29
2023-09-29T14:44:44.203Z,100883.65
2023-09-29T14:47:13.620Z,100880.20
2023-09-29T14:49:40.992Z,100884.13
2023-09-29T14:52:08.359Z,100879.48
2023-09-29T14:54:35.508Z,100881.30
2023-09-29T14:57:03.038Z,100878.05
2023-09-29T14:59:32.941Z,100878.47
2023-09-29T15:02:00.149Z,100880.48
2023-09-29T15:04:36.038Z,100883.69
2023-09-29T15:07:17.001Z,100880.39
2023-09-29T15:09:44.840Z,100882.22
2023-09-29T15:12:12.278Z,100880.58
2023-09-29T15:14:39.475Z,100877.19
2023-09-29T15:17:07.040Z,100877.52
2023-09-29T15:19:44.298Z,100877.27
2023-09-29T15:22:11.818Z,100875.83
2023-09-29T15:24:39.264Z,100872.37
2023-09-29T15:27:07.818Z,100873.92
2023-09-29T15:29:36.013Z,100871.30
2023-09-29T15:32:03.146Z,100871.15
2023-09-29T15:34:31.579Z,100871.65
2023-09-29T15:36:58.874Z,100869.75
2023-09-29T15:39:26.620Z,100868.10
2023-09-29T15:41:54.085Z,100864.55
2023-09-29T15:44:21.262Z,100869.31
2023-09-29T15:46:48.473Z,100867.30
2023-09-29T15:49:15.693Z,100864.75
2023-09-29T15:51:42.922Z,100868.25
2023-09-29T15:54:10.294Z,100865.77
2023-09-29T15:56:37.566Z,100868.71
2023-09-29T15:59:05.023Z,100868.02
2023-09-29T16:01:33.918Z,100866.90
2023-09-29T16:04:02.311Z,100868.63
2023-09-29T16:06:30.839Z,100870.98
2023-09-29T16:08:58.074Z,100869.79
2023-09-29T16:11:26.382Z,100872.42
2023-09-29T16:13:53.653Z,100875.00
2023-09-29T16:16:20.957Z,100875.58
2023-09-29T16:18:48.230Z,100879.08
2023-09-29T16:21:19.884Z,100880.13
2023-09-29T16:23:48.029Z,100877.02
2023-09-29T16:26:17.471Z,100880.30
2023-09-29T16:28:45.422Z,100879.46
2023-09-29T16:31:14.127Z,100881.37
2023-09-29T16:33:42.263Z,100883.93
2023-09-29T16:36:09.575Z,100882.86
2023-09-29T16:38:38.378Z,100882.27
2023-09-29T16:41:05.562Z,100879.02
2023-09-29T16:43:32.825Z,100881.63
2023-09-29T16:46:00.077Z,100882.34
2023-09-29T16:48:27.801Z,100882.61
2023-09-29T16:50:56.203Z,100885.36
2023-09-29T16:53:28.983Z,100886.20
2023-09-29T16:55:57.064Z,100887.66
2023-09-29T16:58:24.205Z,100895.39
2023-09-29T17:00:52.434Z,100894.61
2023-09-29T17:03:20.157Z,100901.02
2023-09-29T17:05:47.451Z,100901.54
2023-09-29T17:08:14.670Z,100900.19
2023-09-29T17:10:42.866Z,100901.36
2023-09-29T17:13:09.968Z,100902.90
2023-09-29T17:15:40.806Z,100899.14
2023-09-29T17:18:08.454Z,100905.34
2023-09-29T17:20:39.010Z,100905.69
2023-09-29T17:23:06.450Z,100910.39
2023-09-29T17:25:33.561Z,100910.41
2023-09-29T17:28:01.387Z,100911.79
2023-09-29T17:30:28.673Z,100912.93
2023-09-29T17:32:56.127Z,100917.48
2023-09-29T17:35:23.347Z,100916.31
2023-09-29T17:37:50.533Z,100923.04
2023-09-29T17:40:19.884Z,100924.54
2023-09-29T17:42:47.733Z,100929.34
2023-09-29T17:45:15.201Z,100928.89
2023-09-29T17:47:42.515Z,100929.59
2023-09-29T17:50:10.740Z,100930.65
2023-09-29T17:52:38.895Z,100934.04
2023-09-29T17:55:07.710Z,100932.94
2023-09-29T17:57:35.158Z,100935.17
2023-09-29T18:00:05.052Z,100935.11
2023-09-29T18:02:35.017Z,100935.45
2023-09-29T18:05:02.173Z,100937.50
2023-09-29T18:07:29.368Z,100940.07
2023-09-29T18:09:56.588Z,100942.29
2023-09-29T18:12:23.831Z,100942.15
2023-09-29T18:14:52.733Z,100940.58
2023-09-29T18:17:20.015Z,100941.58
2023-09-29T18:19:47.613Z,100943.55
2023-09-29T18:22:14.783Z,100943.50
2023-09-29T18:24:43.354Z,100946.25
2023-09-29T18:27:10.632Z,100948.02
2023-09-29T18:29:37.790Z,100943.98
2023-09-29T18:32:05.519Z,100945.11
2023-09-29T18:34:32.693Z,100947.00
2023-09-29T18:36:59.910Z,100945.44
2023-09-29T18:39:27.877Z,100942.70
2023-09-29T18:41:55.052Z,100943.33
2023-09-29T18:44:22.585Z,100944.66
2023-09-29T18:46:49.873Z,100946.81
2023-09-29T18:49:17.700Z,100945.84
2023-09-29T18:51:44.923Z,100948.48
2023-09-29T18:54:12.193Z,100948.70
2023-09-29T18:56:42.435Z,100947.79
2023-09-29T18:59:10.449Z,100950.21
2023-09-29T19:01:38.039Z,100956.38
2023-09-29T19:04:05.900Z,100954.54
2023-09-29T19:06:33.100Z,100955.17
2023-09-29T19:09:00.751Z,100955.11
2023-09-29T19:11:28.206Z,100949.08
2023-09-29T19:13:56.025Z,100951.60
2023-09-29T19:16:23.368Z,100947.07
2023-09-29T19:18:52.739Z,100947.02
2023-09-29T19:21:24.342Z,100946.31
2023-09-29T19:23:55.860Z,100944.84
2023-09-29T19:26:25.881Z,100942.30
2023-09-29T19:28:53.879Z,100941.27
2023-09-29T19:31:27.149Z,100942.78
2023-09-29T19:33:59.161Z,100944.77
2023-09-29T19:36:29.583Z,100945.00
2023-09-29T19:38:57.371Z,100945.95
2023-09-29T19:41:25.072Z,100944.08
2023-09-29T19:43:52.646Z,100946.22
2023-09-29T19:46:23.495Z,100952.20
2023-09-29T19:48:52.830Z,100953.13
2023-09-29T19:51:20.266Z,100952.81
2023-09-29T19:53:47.493Z,100954.59
2023-09-29T19:56:21.266Z,100954.42
2023-09-29T19:58:49.239Z,100955.91
2023-09-29T20:01:18.283Z,100959.25
2023-09-29T20:03:46.349Z,100958.40
2023-09-29T20:06:13.667Z,100956.50
2023-09-29T20:08:43.688Z,100958.95
2023-09-29T20:11:12.025Z,100958.55
2023-09-29T20:13:39.464Z,100960.92
2023-09-29T20:16:07.193Z,100959.07
2023-09-29T20:18:34.604Z,100958.45
2023-09-29T20:21:03.669Z,100955.02
2023-09-29T20:23:31.045Z,100954.81
2023-09-29T20:25:59.757Z,100952.59
2023-09-29T20:28:27.742Z,100953.64
2023-09-29T20:30:55.262Z,100960.69
2023-09-29T20:33:25.321Z,100960.14
2023-09-29T20:35:52.526Z,100959.57
2023-09-29T20:38:19.930Z,100958.35
2023-09-29T20:40:48.373Z,100959.83
2023-09-29T20:43:15.719Z,100962.59
2023-09-29T20:45:49.426Z,100962.52
2023-09-29T20:48:17.442Z,100963.48
2023-09-29T20:50:45.137Z,100960.16
2023-09-29T20:53:17.000Z,100966.70
2023-09-29T20:55:44.468Z,100967.18
2023-09-29T20:58:12.107Z,100966.52
2023-09-29T21:00:40.974Z,100967.48
2023-09-29T21:03:10.469Z,100965.40
2023-09-29T21:05:37.646Z,100965.14
2023-09-29T21:08:05.290Z,100960.05
2023-09-29T21:10:32.493Z,100961.89
2023-09-29T21:13:01.422Z,100961.34
2023-09-29T21:15:28.774Z,100962.40
2023-09-29T21:17:58.785Z,100966.14
2023-09-29T21:20:26.047Z,100968.90
2023-09-29T21:22:54.262Z,100973.55
2023-09-29T21:25:22.878Z,100979.05
2023-09-29T21:27:50.469Z,100982.35
2023-09-29T21:30:17.986Z,100978.45
2023-09-29T21:32:45.270Z,100982.40
2023-09-29T21:35:13.444Z,100976.69
2023-09-29T21:37:40.708Z,100974.91
2023-09-29T21:40:08.818Z,100975.45
2023-09-29T21:42:36.028Z,100974.15
2023-09-29T21:45:04.143Z,100975.94
2023-09-29T21:47:31.456Z,100974.04
2023-09-29T21:49:58.732Z,100973.11
2023-09-29T21:52:25.960Z,100973.61
2023-09-29T21:54:53.143Z,100972.38
2023-09-29T21:57:20.494Z,100970.11
2023-09-29T21:59:48.015Z,100967.84
2023-09-29T22:02:15.701Z,100966.55
2023-09-29T22:04:42.999Z,100970.48
2023-09-29T22:07:10.240Z,100968.59
2023-09-29T22:09:37.455Z,100971.26
2023-09-29T22:12:05.409Z,100972.69
2023-09-29T22:14:32.720Z,100971.35
2023-09-29T22:17:00.910Z,100971.23
2023-09-29T22:19:28.138Z,100967.02
2023-09-29T22:21:55.404Z,100965.27
2023-09-29T22:24:23.152Z,100968.11
2023-09-29T22:26:51.829Z,100969.05
2023-09-29T22:29:19.151Z,100969.56
2023-09-29T22:31:49.265Z,100968.44
2023-09-29T22:34:17.661Z,100971.04
2023-09-29T22:36:48.043Z,100970.02
2023-09-29T22:39:15.706Z,100971.67
2023-09-29T22:41:43.260Z,100972.29
2023-09-29T22:44:10.412Z,100971.94
2023-09-29T22:46:37.603Z,100973.64
2023-09-29T22:49:04.992Z,100970.05
2023-09-29T22:51:32.215Z,100970.27
2023-09-29T22:53:59.464Z,100973.07
2023-09-29T22:56:26.725Z,100972.08
2023-09-29T22:58:54.312Z,100970.73
2023-09-29T23:01:21.528Z,100975.40
2023-09-29T23:03:49.846Z,100977.08
2023-09-29T23:06:17.777Z,100980.16
2023-09-29T23:08:46.727Z,100982.33
2023-09-29T23:11:13.936Z,100979.38
2023-09-29T23:13:42.966Z,100978.67
2023-09-29T23:16:10.733Z,100977.36
2023-09-29T23:18:37.968Z,100977.35
2023-09-29T23:21:06.055Z,100972.30
2023-09-29T23:23:33.341Z,100965.31
2023-09-29T23:26:00.485Z,100966.58
2023-09-29T23:28:27.867Z,100965.94
2023-09-29T23:30:59.631Z,100968.34
2023-09-29T23:33:30.691Z,100973.45
2023-09-29T23:35:57.959Z,100974.98
2023-09-29T23:38:25.301Z,100969.91
2023-09-29T23:40:52.482Z,100970.42
2023-09-29T23:43:19.681Z,100968.19
2023-09-29T23:45:48.447Z,100967.38
2023-09-29T23:48:17.147Z,100967.01
2023-09-29T23:50:44.383Z,100963.74
2023-09-29T23:53:11.716Z,100958.30
2023-09-29T23:55:38.897Z,100964.52
2023-09-29T23:58:06.107Z,100965.65
